createdAt,value
2023-09-27T00:02:37.007Z,9.82
2023-09-27T00:05:08.220Z,11.73
2023-09-27T00:07:35.996Z,8.65
2023-09-27T00:10:03.720Z,9.98
2023-09-27T00:12:31.281Z,8.35
2023-09-27T00:14:58.867Z,10.20
2023-09-27T00:17:26.381Z,12.43
2023-09-27T00:19:55.227Z,10.80
2023-09-27T00:22:22.800Z,10.35
2023-09-27T00:24:50.588Z,8.73
2023-09-27T00:27:18.098Z,11.75
2023-09-27T00:29:46.702Z,10.80
2023-09-27T00:32:14.508Z,9.88
2023-09-27T00:37:10.731Z,6.93
2023-09-27T00:39:40.158Z,8.77
2023-09-27T00:42:07.646Z,13.65
2023-09-27T00:44:35.913Z,9.18
2023-09-27T00:47:03.480Z,13.98
2023-09-27T00:49:31.047Z,14.27
2023-09-27T00:51:58.633Z,11.48
2023-09-27T00:54:27.560Z,15.57
2023-09-27T00:56:55.081Z,10.20
2023-09-27T00:59:22.961Z,19.35
2023-09-27T01:04:19.073Z,10.02
2023-09-27T01:06:46.547Z,10.10
2023-09-27T01:09:14.073Z,10.43
2023-09-27T01:11:43.085Z,9.30
2023-09-27T01:14:10.648Z,9.77
2023-09-27T01:16:38.481Z,15.95
2023-09-27T01:21:33.573Z,11.10
2023-09-27T01:24:02.558Z,8.65
2023-09-27T01:26:30.707Z,16.88
2023-09-27T01:28:58.335Z,11.13
2023-09-27T01:31:25.866Z,11.48
2023-09-27T01:33:53.466Z,11.55
2023-09-27T01:36:21.332Z,8.48
2023-09-27T01:38:48.763Z,11.13
2023-09-27T01:41:19.086Z,9.75
2023-09-27T01:43:46.685Z,11.38
2023-09-27T01:46:15.078Z,9.82
2023-09-27T01:48:42.740Z,19.02
2023-09-27T01:51:10.211Z,12.18
2023-09-27T01:53:37.715Z,11.25
2023-09-27T01:56:05.431Z,11.85
2023-09-27T01:58:34.274Z,8.70
2023-09-27T02:01:01.824Z,11.45
2023-09-27T02:03:29.461Z,10.90
2023-09-27T02:05:59.074Z,9.98
2023-09-27T02:08:26.676Z,10.10
2023-09-27T02:10:54.148Z,14.93
2023-09-27T02:13:21.779Z,18.52
2023-09-27T02:15:50.589Z,10.48
2023-09-27T02:18:18.222Z,13.52
2023-09-27T02:20:46.709Z,10.77
2023-09-27T02:23:14.265Z,9.75
2023-09-27T02:25:41.887Z,11.13
2023-09-27T02:28:09.929Z,16.02
2023-09-27T02:30:37.418Z,13.90
2023-09-27T02:33:06.485Z,12.65
2023-09-27T02:35:34.023Z,13.35
2023-09-27T02:38:01.511Z,17.05
2023-09-27T02:40:29.026Z,11.38
2023-09-27T02:42:56.707Z,12.00
2023-09-27T02:45:24.149Z,8.73
2023-09-27T02:47:51.683Z,11.30
2023-09-27T02:50:20.583Z,12.20
2023-09-27T02:52:48.294Z,8.48
2023-09-27T02:55:16.144Z,12.88
2023-09-27T02:57:49.758Z,13.60
2023-09-27T03:00:17.650Z,13.15
2023-09-27T03:07:42.122Z,11.88
2023-09-27T03:10:12.042Z,12.48
2023-09-27T03:12:41.215Z,11.75
2023-09-27T03:15:12.585Z,10.00
2023-09-27T03:17:41.872Z,14.38
2023-09-27T03:20:17.144Z,14.90
2023-09-27T03:22:47.352Z,16.23
2023-09-27T03:25:15.457Z,13.45
2023-09-27T03:27:43.006Z,18.73
2023-09-27T03:30:11.562Z,12.98
2023-09-27T03:32:40.875Z,15.73
2023-09-27T03:35:09.999Z,16.70
2023-09-27T03:37:37.794Z,16.45
2023-09-27T03:40:08.965Z,11.23
2023-09-27T03:42:36.927Z,11.48
2023-09-27T03:47:31.867Z,12.60
2023-09-27T03:52:27.301Z,14.10
2023-09-27T03:54:54.875Z,16.10
2023-09-27T03:57:23.701Z,12.13
2023-09-27T03:59:51.154Z,16.65
2023-09-27T04:02:18.865Z,13.23
2023-09-27T04:04:46.472Z,13.63
2023-09-27T04:07:14.006Z,12.15
2023-09-27T04:09:41.555Z,12.57
2023-09-27T04:12:08.999Z,15.48
2023-09-27T04:14:37.842Z,13.55
2023-09-27T04:17:05.589Z,13.48
2023-09-27T04:19:34.040Z,18.45
2023-09-27T04:22:02.036Z,14.50
2023-09-27T04:24:29.517Z,30.45
2023-09-27T04:26:56.988Z,15.00
2023-09-27T04:29:24.552Z,12.43
2023-09-27T04:31:53.459Z,12.10
2023-09-27T04:34:20.906Z,19.77
2023-09-27T04:36:49.113Z,14.18
2023-09-27T04:39:18.491Z,13.85
2023-09-27T04:41:47.470Z,13.50
2023-09-27T04:44:15.202Z,20.35
2023-09-27T04:46:42.832Z,11.43
2023-09-27T04:49:11.658Z,14.45
2023-09-27T04:51:39.514Z,19.95
2023-09-27T04:54:08.475Z,20.85
2023-09-27T04:56:36.014Z,15.32
2023-09-27T04:59:04.995Z,13.57
2023-09-27T05:01:32.724Z,33.45
2023-09-27T05:04:00.246Z,34.72
2023-09-27T05:06:29.552Z,20.55
2023-09-27T05:08:57.045Z,32.10
2023-09-27T05:11:24.531Z,17.40
2023-09-27T05:13:52.005Z,20.92
2023-09-27T05:16:20.979Z,13.15
2023-09-27T05:18:48.476Z,20.38
2023-09-27T05:21:15.936Z,21.77
2023-09-27T05:23:45.029Z,18.55
2023-09-27T05:26:13.081Z,17.40
2023-09-27T05:28:40.651Z,24.13
2023-09-27T05:31:08.163Z,21.10
2023-09-27T05:33:35.702Z,18.27
2023-09-27T05:36:03.824Z,27.83
2023-09-27T05:38:31.458Z,34.92
2023-09-27T05:41:00.317Z,23.75
2023-09-27T05:43:27.937Z,20.45
2023-09-27T05:45:55.410Z,23.77
2023-09-27T05:48:22.991Z,18.52
2023-09-27T05:50:51.180Z,19.92
2023-09-27T05:53:18.728Z,24.38
2023-09-27T05:55:47.377Z,19.60
2023-09-27T05:58:16.272Z,16.35
2023-09-27T06:00:47.745Z,22.05
2023-09-27T06:03:15.592Z,20.13
2023-09-27T06:05:43.196Z,16.55
2023-09-27T06:08:10.730Z,14.30
2023-09-27T06:10:38.180Z,21.38
2023-09-27T06:13:06.247Z,36.78
2023-09-27T06:15:35.508Z,30.52
2023-09-27T06:18:04.146Z,27.52
2023-09-27T06:20:32.144Z,68.15
2023-09-27T06:23:04.480Z,27.13
2023-09-27T06:25:33.503Z,30.02
2023-09-27T06:28:01.659Z,60.00
2023-09-27T06:30:29.446Z,34.78
2023-09-27T06:32:58.645Z,47.03
2023-09-27T06:35:26.375Z,18.40
2023-09-27T06:37:54.001Z,27.75
2023-09-27T06:40:23.356Z,40.70
2023-09-27T06:42:50.862Z,43.80
2023-09-27T06:45:18.491Z,33.15
2023-09-27T06:47:46.963Z,37.20
2023-09-27T06:50:16.485Z,28.58
2023-09-27T06:52:43.131Z,30.73
2023-09-27T06:55:12.948Z,30.83
2023-09-27T06:57:41.266Z,25.90
2023-09-27T07:00:14.255Z,27.13
2023-09-27T07:02:43.902Z,24.17
2023-09-27T07:05:12.680Z,21.50
2023-09-27T07:07:41.634Z,19.42
2023-09-27T07:10:09.749Z,13.73
2023-09-27T07:12:37.465Z,17.70
2023-09-27T07:15:09.277Z,22.15
2023-09-27T07:17:37.121Z,17.27
2023-09-27T07:20:13.408Z,14.68
2023-09-27T07:22:43.650Z,18.08
2023-09-27T07:25:13.612Z,17.65
2023-09-27T07:27:41.856Z,13.77
2023-09-27T07:30:11.644Z,14.07
2023-09-27T07:32:40.398Z,18.77
2023-09-27T07:35:10.294Z,13.82
2023-09-27T07:37:38.276Z,10.15
2023-09-27T07:40:10.917Z,13.95
2023-09-27T07:42:38.523Z,18.27
2023-09-27T07:45:06.656Z,16.25
2023-09-27T07:47:35.468Z,18.02
2023-09-27T07:50:03.142Z,12.57
2023-09-27T07:52:30.665Z,23.92
2023-09-27T07:54:59.495Z,11.57
2023-09-27T07:57:28.318Z,11.32
2023-09-27T07:59:56.083Z,14.90
2023-09-27T08:02:24.070Z,11.00
2023-09-27T08:04:51.570Z,14.43
2023-09-27T08:07:19.897Z,15.93
2023-09-27T08:09:47.437Z,28.95
2023-09-27T08:12:15.077Z,23.05
2023-09-27T08:14:43.912Z,26.63
2023-09-27T08:17:11.493Z,22.33
2023-09-27T08:19:39.646Z,20.60
2023-09-27T08:22:07.136Z,34.53
2023-09-27T08:24:34.596Z,20.48
2023-09-27T08:27:02.879Z,21.52
2023-09-27T08:29:30.380Z,25.25
2023-09-27T08:31:59.500Z,22.63
2023-09-27T08:34:27.122Z,31.33
2023-09-27T08:36:54.575Z,25.58
2023-09-27T08:39:22.112Z,19.48
2023-09-27T08:41:49.700Z,17.63
2023-09-27T08:44:17.216Z,17.30
2023-09-27T08:46:45.886Z,19.95
2023-09-27T08:49:16.175Z,20.42
2023-09-27T08:51:44.099Z,18.48
2023-09-27T08:54:13.233Z,47.13
2023-09-27T08:56:41.172Z,28.13
2023-09-27T08:59:08.959Z,20.85
2023-09-27T09:04:04.345Z,20.17
2023-09-27T09:06:33.690Z,16.55
2023-09-27T09:09:05.927Z,17.92
2023-09-27T09:11:33.632Z,17.40
2023-09-27T09:14:05.502Z,28.33
2023-09-27T09:16:40.903Z,15.18
2023-09-27T09:19:32.780Z,24.30
2023-09-27T09:22:10.796Z,22.15
2023-09-27T09:24:38.524Z,23.20
2023-09-27T09:29:45.863Z,28.23
2023-09-27T09:32:14.156Z,18.10
2023-09-27T09:34:41.120Z,15.10
2023-09-27T09:37:17.882Z,16.67
2023-09-27T09:39:45.535Z,18.67
2023-09-27T09:42:13.179Z,25.17
2023-09-27T09:47:12.293Z,15.32
2023-09-27T09:49:40.256Z,12.20
2023-09-27T09:52:07.717Z,9.68
2023-09-27T09:54:39.907Z,12.55
2023-09-27T09:57:15.987Z,8.15
2023-09-27T09:59:50.889Z,12.85
2023-09-27T10:02:20.934Z,6.82
2023-09-27T10:04:48.923Z,12.13
2023-09-27T10:07:18.356Z,13.00
2023-09-27T10:09:48.178Z,21.67
2023-09-27T10:12:15.926Z,19.92
2023-09-27T10:22:15.159Z,13.93
2023-09-27T10:24:43.702Z,6.85
2023-09-27T10:27:12.578Z,11.52
2023-09-27T10:29:54.939Z,12.75
2023-09-27T10:32:21.678Z,14.43
2023-09-27T10:34:49.930Z,9.55
2023-09-27T10:37:19.746Z,12.93
2023-09-27T10:40:08.302Z,13.07
2023-09-27T10:42:43.456Z,10.43
2023-09-27T10:45:11.333Z,8.65
2023-09-27T10:47:39.043Z,8.93
2023-09-27T10:50:07.037Z,10.68
2023-09-27T10:52:34.591Z,13.57
2023-09-27T10:55:09.870Z,15.13
2023-09-27T10:57:37.426Z,14.55
2023-09-27T11:00:10.637Z,18.13
2023-09-27T11:02:39.000Z,12.65
2023-09-27T11:05:07.732Z,9.93
2023-09-27T11:07:48.627Z,18.05
2023-09-27T11:10:20.412Z,16.45
2023-09-27T11:12:48.053Z,26.40
2023-09-27T11:15:25.071Z,11.13
2023-09-27T11:17:56.154Z,15.90
2023-09-27T11:20:25.799Z,17.52
2023-09-27T11:22:57.941Z,14.57
2023-09-27T11:25:37.421Z,16.45
2023-09-27T11:28:06.048Z,12.65
2023-09-27T11:30:36.231Z,17.15
2023-09-27T11:33:07.069Z,10.77
2023-09-27T11:35:35.127Z,16.08
2023-09-27T11:38:06.526Z,9.85
2023-09-27T11:40:35.140Z,14.82
2023-09-27T11:43:03.921Z,22.88
2023-09-27T11:45:42.821Z,18.75
2023-09-27T11:48:11.864Z,16.42
2023-09-27T11:50:39.596Z,23.75
2023-09-27T11:53:07.088Z,15.52
2023-09-27T11:58:03.408Z,18.75
2023-09-27T12:00:30.990Z,22.13
2023-09-27T12:02:59.085Z,11.30
2023-09-27T12:05:29.138Z,12.90
2023-09-27T12:07:57.106Z,21.27
2023-09-27T12:10:24.683Z,10.38
2023-09-27T12:12:51.383Z,20.85
2023-09-27T12:15:18.981Z,14.17
2023-09-27T12:20:26.614Z,23.80
2023-09-27T12:22:56.378Z,16.73
2023-09-27T12:25:23.802Z,17.63
2023-09-27T12:30:19.380Z,10.70
2023-09-27T12:32:46.845Z,10.80
2023-09-27T12:35:14.444Z,9.48
2023-09-27T12:37:41.931Z,10.35
2023-09-27T12:40:11.523Z,10.07
2023-09-27T12:42:38.993Z,8.75
2023-09-27T12:45:08.060Z,10.43
2023-09-27T12:47:35.721Z,19.15
2023-09-27T12:50:04.437Z,8.88
2023-09-27T12:52:32.516Z,9.35
2023-09-27T12:55:00.084Z,8.20
2023-09-27T12:57:29.013Z,10.27
2023-09-27T12:59:57.022Z,6.40
2023-09-27T13:02:24.767Z,15.80
2023-09-27T13:04:52.622Z,11.70
2023-09-27T13:07:20.168Z,13.20
2023-09-27T13:09:47.645Z,12.55
2023-09-27T13:12:15.541Z,11.90
2023-09-27T13:14:44.393Z,7.60
2023-09-27T13:17:12.619Z,9.63
2023-09-27T13:19:40.155Z,9.90
2023-09-27T13:22:07.886Z,12.85
2023-09-27T13:24:35.401Z,7.68
2023-09-27T13:27:02.886Z,17.48
2023-09-27T13:29:30.504Z,9.90
2023-09-27T13:31:59.412Z,7.82
2023-09-27T13:34:26.828Z,10.73
2023-09-27T13:39:26.953Z,6.30
2023-09-27T13:41:54.539Z,16.63
2023-09-27T13:44:22.089Z,10.98
2023-09-27T13:46:50.149Z,6.05
2023-09-27T13:49:19.328Z,9.48
2023-09-27T13:51:46.816Z,13.73
2023-09-27T13:54:15.516Z,15.18
2023-09-27T13:56:43.043Z,6.10
2023-09-27T13:59:10.659Z,9.93
2023-09-27T14:01:38.645Z,12.50
2023-09-27T14:04:06.537Z,11.25
2023-09-27T14:06:35.371Z,14.95
2023-09-27T14:09:03.175Z,8.63
2023-09-27T14:11:30.705Z,8.68
2023-09-27T14:13:58.533Z,7.57
2023-09-27T14:16:26.418Z,11.13
2023-09-27T14:18:54.772Z,13.68
2023-09-27T14:21:22.706Z,8.90
2023-09-27T14:23:51.585Z,5.72
2023-09-27T14:26:21.184Z,15.80
2023-09-27T14:28:48.908Z,9.00
2023-09-27T14:31:17.467Z,4.57
2023-09-27T14:33:45.163Z,10.48
2023-09-27T14:36:13.256Z,17.40
2023-09-27T14:38:40.707Z,7.38
2023-09-27T14:43:38.036Z,6.78
2023-09-27T14:46:09.981Z,5.20
2023-09-27T14:48:38.317Z,10.15
2023-09-27T14:51:05.907Z,7.43
2023-09-27T14:53:33.390Z,10.50
2023-09-27T14:58:28.158Z,6.03
2023-09-27T15:03:25.093Z,5.45
2023-09-27T15:05:52.736Z,4.80
2023-09-27T15:08:20.245Z,7.60
2023-09-27T15:13:15.133Z,10.90
2023-09-27T15:18:10.336Z,6.93
2023-09-27T15:28:01.528Z,15.27
2023-09-27T15:30:29.150Z,9.07
2023-09-27T15:42:50.700Z,6.65
2023-09-27T15:45:21.433Z,4.95
2023-09-27T15:47:49.074Z,6.82
2023-09-27T15:50:16.914Z,7.45
2023-09-27T15:52:44.411Z,11.40
2023-09-27T15:55:12.334Z,5.25
2023-09-27T15:57:40.026Z,4.57
2023-09-27T16:00:12.320Z,6.47
2023-09-27T16:02:41.548Z,4.75
2023-09-27T16:05:12.749Z,10.02
2023-09-27T16:07:40.620Z,7.72
2023-09-27T16:10:09.792Z,5.65
2023-09-27T16:12:37.246Z,12.23
2023-09-27T16:15:06.680Z,14.02
2023-09-27T16:17:36.765Z,7.32
2023-09-27T16:20:08.225Z,6.28
2023-09-27T16:22:36.001Z,14.70
2023-09-27T16:25:04.819Z,8.93
2023-09-27T16:27:32.344Z,5.35
2023-09-27T16:30:00.046Z,7.38
2023-09-27T16:32:28.191Z,6.00
2023-09-27T16:34:55.864Z,7.97
2023-09-27T16:37:24.764Z,8.93
2023-09-27T16:39:52.330Z,7.75
2023-09-27T16:42:19.882Z,9.18
2023-09-27T16:44:47.349Z,8.27
2023-09-27T16:47:14.815Z,9.40
2023-09-27T16:49:42.327Z,12.45
2023-09-27T16:52:09.819Z,6.10
2023-09-27T16:54:39.084Z,7.82
2023-09-27T16:57:06.542Z,10.68
2023-09-27T16:59:35.046Z,12.75
2023-09-27T17:02:02.750Z,8.57
2023-09-27T17:04:30.234Z,8.38
2023-09-27T17:06:57.709Z,7.32
2023-09-27T17:09:25.658Z,6.60
2023-09-27T17:11:54.619Z,10.88
2023-09-27T17:14:23.209Z,9.13
2023-09-27T17:16:50.835Z,10.20
2023-09-27T17:19:23.655Z,8.88
2023-09-27T17:21:51.191Z,8.30
2023-09-27T17:24:18.662Z,9.63
2023-09-27T17:26:46.938Z,6.65
2023-09-27T17:29:16.139Z,9.55
2023-09-27T17:31:44.736Z,11.93
2023-09-27T17:34:12.457Z,6.95
2023-09-27T17:36:40.117Z,10.20
2023-09-27T17:39:07.760Z,15.60
2023-09-27T17:41:35.420Z,10.07
2023-09-27T17:44:03.133Z,12.20
2023-09-27T17:46:32.207Z,8.50
2023-09-27T17:49:00.610Z,12.55
2023-09-27T17:51:28.056Z,11.90
2023-09-27T17:53:55.742Z,10.75
2023-09-27T17:58:52.297Z,12.43
2023-09-27T18:01:20.785Z,13.18
2023-09-27T18:03:49.704Z,10.65
2023-09-27T18:06:17.182Z,18.55
2023-09-27T18:08:44.645Z,8.35
2023-09-27T18:11:12.687Z,22.58
2023-09-27T18:13:40.361Z,12.52
2023-09-27T18:16:16.026Z,11.18
2023-09-27T18:18:44.161Z,13.65
2023-09-27T18:21:14.859Z,19.85
2023-09-27T18:23:43.998Z,10.73
2023-09-27T18:26:12.142Z,17.73
2023-09-27T18:28:39.984Z,12.90
2023-09-27T18:31:07.952Z,13.13
2023-09-27T18:33:35.394Z,9.88
2023-09-27T18:36:03.766Z,9.25
2023-09-27T18:38:32.606Z,9.77
2023-09-27T18:41:00.182Z,12.73
2023-09-27T18:43:27.792Z,9.68
2023-09-27T18:45:55.340Z,13.48
2023-09-27T18:48:22.993Z,14.25
2023-09-27T18:50:51.027Z,10.70
2023-09-27T18:55:47.164Z,15.55
2023-09-27T18:58:15.495Z,14.00
2023-09-27T19:00:43.365Z,13.90
2023-09-27T19:05:38.447Z,10.00
2023-09-27T19:08:05.956Z,12.52
2023-09-27T19:10:33.692Z,14.25
2023-09-27T19:13:02.563Z,18.52
2023-09-27T19:15:30.153Z,12.80
2023-09-27T19:17:58.598Z,11.32
2023-09-27T19:20:26.538Z,15.73
2023-09-27T19:25:22.309Z,18.00
2023-09-27T19:27:49.883Z,16.67
2023-09-27T19:30:18.719Z,15.88
2023-09-27T19:32:46.568Z,20.90
2023-09-27T19:37:42.971Z,16.23
2023-09-27T19:40:13.137Z,15.27
2023-09-27T19:42:42.024Z,16.73
2023-09-27T19:45:11.003Z,20.02
2023-09-27T19:47:39.795Z,15.77
2023-09-27T19:50:09.760Z,15.07
2023-09-27T19:52:38.770Z,16.48
2023-09-27T19:55:07.356Z,14.80
2023-09-27T19:57:34.828Z,15.85
2023-09-27T20:00:04.536Z,12.98
2023-09-27T20:02:36.536Z,17.25
2023-09-27T20:05:06.386Z,19.77
2023-09-27T20:07:33.906Z,15.55
2023-09-27T20:10:01.566Z,13.65
2023-09-27T20:12:28.996Z,19.08
2023-09-27T20:14:56.463Z,15.68
2023-09-27T20:17:23.963Z,15.60
2023-09-27T20:19:51.457Z,13.48
2023-09-27T20:22:20.941Z,25.08
2023-09-27T20:24:48.416Z,21.45
2023-09-27T20:27:16.172Z,14.60
2023-09-27T20:29:43.637Z,13.15
2023-09-27T20:32:11.094Z,12.10
2023-09-27T20:34:38.569Z,24.55
2023-09-27T20:37:06.063Z,20.55
2023-09-27T20:39:34.944Z,15.32
2023-09-27T20:42:02.963Z,19.27
2023-09-27T20:44:30.816Z,21.13
2023-09-27T20:49:25.674Z,12.60
2023-09-27T20:51:53.138Z,15.57
2023-09-27T20:54:20.587Z,18.42
2023-09-27T20:56:49.355Z,14.05
2023-09-27T20:59:16.876Z,13.55
2023-09-27T21:01:45.050Z,13.63
2023-09-27T21:04:15.636Z,16.85
2023-09-27T21:06:43.684Z,13.60
2023-09-27T21:09:11.488Z,15.98
2023-09-27T21:11:39.018Z,14.07
2023-09-27T21:14:07.878Z,12.07
2023-09-27T21:16:35.540Z,14.80
2023-09-27T21:19:03.062Z,17.98
2023-09-27T21:21:31.805Z,13.38
2023-09-27T21:23:59.282Z,13.50
2023-09-27T21:26:27.837Z,12.88
2023-09-27T21:28:55.443Z,16.17
2023-09-27T21:31:24.384Z,12.43
2023-09-27T21:33:52.025Z,14.55
2023-09-27T21:38:48.364Z,15.40
2023-09-27T21:41:15.799Z,12.90
2023-09-27T21:43:43.534Z,12.52
2023-09-27T21:46:18.084Z,13.15
2023-09-27T21:48:48.745Z,19.77
2023-09-27T21:51:16.373Z,13.95
2023-09-27T21:53:43.863Z,18.27
2023-09-27T21:56:11.916Z,16.95
2023-09-27T21:58:39.395Z,13.32
2023-09-27T22:01:08.353Z,12.63
2023-09-27T22:03:35.870Z,13.80
2023-09-27T22:06:06.460Z,12.00
2023-09-27T22:08:34.066Z,14.55
2023-09-27T22:11:04.090Z,13.45
2023-09-27T22:13:32.757Z,12.38
2023-09-27T22:16:07.637Z,17.67
2023-09-27T22:18:35.422Z,9.93
2023-09-27T22:23:47.673Z,10.95
2023-09-27T22:26:18.280Z,12.90
2023-09-27T22:28:46.281Z,9.95
2023-09-27T22:33:57.832Z,11.18
2023-09-27T22:36:26.390Z,10.25
2023-09-27T22:38:55.234Z,15.82
2023-09-27T22:41:24.146Z,10.88
2023-09-27T22:43:53.384Z,13.68
2023-09-27T22:46:21.230Z,9.82
2023-09-27T22:48:51.352Z,8.10
2023-09-27T22:51:20.159Z,12.05
2023-09-27T22:53:47.664Z,9.00
2023-09-27T22:56:16.517Z,12.18
2023-09-27T22:58:45.437Z,8.98
2023-09-27T23:01:28.988Z,8.95
2023-09-27T23:03:59.308Z,17.77
2023-09-27T23:06:26.889Z,9.48
2023-09-27T23:09:00.866Z,9.63
2023-09-27T23:11:30.198Z,12.05
2023-09-27T23:13:59.476Z,11.23
2023-09-27T23:16:45.822Z,8.98
2023-09-27T23:19:15.132Z,12.15
2023-09-27T23:21:43.971Z,7.18
2023-09-27T23:24:25.535Z,10.77
2023-09-27T23:27:02.971Z,8.05
2023-09-27T23:29:36.112Z,9.13
2023-09-27T23:32:15.170Z,13.40
2023-09-27T23:34:42.325Z,9.07
2023-09-27T23:37:17.174Z,7.20
2023-09-27T23:39:44.345Z,7.93
2023-09-27T23:42:24.044Z,6.30
2023-09-27T23:44:52.165Z,9.75
2023-09-27T23:47:23.200Z,8.90
2023-09-27T23:49:53.349Z,6.72
2023-09-27T23:52:24.998Z,5.72
2023-09-27T23:54:55.928Z,7.60
2023-09-27T23:57:29.776Z,6.20
